Fannin, Texas
Current Conditions -  °F | °C
As of 4:51 PM on Friday 28 Nov 2014 (Local Time) from KVCT Reporting Station
Clear Clear  
Wind Chill: 72°   Ceiling: Unl
Heat Index: 72°   Visibility: 10mi
Dew Point: 51°   Wind: 16mph
Humidity: 48%   Direction: 180°S
Pressure: 30.15"   Gusts: NA
Location:  28.7°N, 97.24°W
Report Text: KVCT 282251Z 18014KT 10SM CLR 22/11 A3015 RMK AO2 SLP210 T02220106
Loading
Personal Weather Stations






























Interactive Weather Map New forecast layout! Learn more

10-Day Weather Forecast

Advertisements
Track Severe Weather on mobile